sensor_id;sensor_type;location;lat;lon;timestamp;pressure;altitude;pressure_sealevel;temperature;humidity
24610;BME280;12758;47.890;11.694;2023-02-23T00:02:11;93461.22;;;7.04;100.00
24610;BME280;12758;47.890;11.694;2023-02-23T00:04:37;93459.47;;;7.08;100.00
24610;BME280;12758;47.890;11.694;2023-02-23T00:07:04;93451.06;;;7.18;100.00
24610;BME280;12758;47.890;11.694;2023-02-23T00:09:30;93453.13;;;7.21;100.00
24610;BME280;12758;47.890;11.694;2023-02-23T00:12:00;93450.75;;;7.28;100.00
24610;BME280;12758;47.890;11.694;2023-02-23T00:14:33;93463.78;;;7.35;100.00
24610;BME280;12758;47.890;11.694;2023-02-23T00:16:59;93455.38;;;7.36;100.00
24610;BME280;12758;47.890;11.694;2023-02-23T00:19:25;93462.53;;;7.32;100.00
24610;BME280;12758;47.890;11.694;2023-02-23T00:21:52;93454.41;;;7.41;100.00
24610;BME280;12758;47.890;11.694;2023-02-23T00:24:19;93459.31;;;7.47;100.00
24610;BME280;12758;47.890;11.694;2023-02-23T00:26:46;93457.44;;;7.39;100.00
24610;BME280;12758;47.890;11.694;2023-02-23T00:29:14;93455.53;;;7.49;100.00
24610;BME280;12758;47.890;11.694;2023-02-23T00:31:41;93461.56;;;7.45;100.00
24610;BME280;12758;47.890;11.694;2023-02-23T00:34:09;93461.41;;;7.51;100.00
24610;BME280;12758;47.890;11.694;2023-02-23T00:36:36;93460.94;;;7.49;100.00
24610;BME280;12758;47.890;11.694;2023-02-23T00:39:05;93465.38;;;7.27;100.00
24610;BME280;12758;47.890;11.694;2023-02-23T00:41:36;93470.75;;;7.18;100.00
24610;BME280;12758;47.890;11.694;2023-02-23T00:44:02;93462.50;;;7.15;100.00
24610;BME280;12758;47.890;11.694;2023-02-23T00:46:29;93467.28;;;7.35;100.00
24610;BME280;12758;47.890;11.694;2023-02-23T00:48:56;93461.25;;;7.38;100.00
24610;BME280;12758;47.890;11.694;2023-02-23T00:51:23;93464.09;;;7.33;100.00
24610;BME280;12758;47.890;11.694;2023-02-23T00:53:52;93471.41;;;7.41;100.00
24610;BME280;12758;47.890;11.694;2023-02-23T00:56:19;93466.81;;;7.42;100.00
24610;BME280;12758;47.890;11.694;2023-02-23T00:58:47;93459.97;;;7.44;100.00
24610;BME280;12758;47.890;11.694;2023-02-23T01:01:13;93463.78;;;7.43;100.00
24610;BME280;12758;47.890;11.694;2023-02-23T01:03:40;93461.56;;;7.45;100.00
24610;BME280;12758;47.890;11.694;2023-02-23T01:06:09;93470.13;;;7.47;100.00
24610;BME280;12758;47.890;11.694;2023-02-23T01:08:37;93460.78;;;7.45;100.00
24610;BME280;12758;47.890;11.694;2023-02-23T01:11:10;93460.44;;;7.38;100.00
24610;BME280;12758;47.890;11.694;2023-02-23T01:13:37;93464.41;;;7.40;100.00
24610;BME280;12758;47.890;11.694;2023-02-23T01:16:05;93461.06;;;7.35;100.00
24610;BME280;12758;47.890;11.694;2023-02-23T01:18:32;93466.31;;;7.31;100.00
24610;BME280;12758;47.890;11.694;2023-02-23T01:20:59;93463.47;;;7.28;100.00
24610;BME280;12758;47.890;11.694;2023-02-23T01:23:25;93470.13;;;7.30;100.00
24610;BME280;12758;47.890;11.694;2023-02-23T01:25:51;93466.66;;;7.38;100.00
24610;BME280;12758;47.890;11.694;2023-02-23T01:28:17;93463.78;;;7.35;100.00
24610;BME280;12758;47.890;11.694;2023-02-23T01:30:43;93469.50;;;7.33;100.00
24610;BME280;12758;47.890;11.694;2023-02-23T01:33:10;93469.50;;;7.33;100.00
24610;BME280;12758;47.890;11.694;2023-02-23T01:35:37;93464.25;;;7.19;100.00
24610;BME280;12758;47.890;11.694;2023-02-23T01:38:03;93465.38;;;7.27;100.00
24610;BME280;12758;47.890;11.694;2023-02-23T01:40:29;93463.44;;;7.19;100.00
24610;BME280;12758;47.890;11.694;2023-02-23T01:42:57;93458.53;;;7.21;100.00
24610;BME280;12758;47.890;11.694;2023-02-23T01:45:28;93466.47;;;7.17;100.00
24610;BME280;12758;47.890;11.694;2023-02-23T01:47:56;93470.28;;;7.16;100.00
24610;BME280;12758;47.890;11.694;2023-02-23T01:50:24;93459.00;;;7.32;100.00
24610;BME280;12758;47.890;11.694;2023-02-23T01:52:51;93455.38;;;7.36;100.00
24610;BME280;12758;47.890;11.694;2023-02-23T01:55:18;93456.16;;;7.28;100.00
24610;BME280;12758;47.890;11.694;2023-02-23T01:57:49;93455.38;;;7.36;100.00
24610;BME280;12758;47.890;11.694;2023-02-23T02:00:18;93455.19;;;7.24;100.00
24610;BME280;12758;47.890;11.694;2023-02-23T02:02:45;93455.84;;;7.21;100.00
24610;BME280;12758;47.890;11.694;2023-02-23T02:05:13;93452.50;;;7.15;100.00
24610;BME280;12758;47.890;11.694;2023-02-23T02:07:41;93451.22;;;7.21;100.00
24610;BME280;12758;47.890;11.694;2023-02-23T02:10:10;93446.63;;;7.22;100.00
24610;BME280;12758;47.890;11.694;2023-02-23T02:12:54;93443.16;;;7.13;100.00
24610;BME280;12758;47.890;11.694;2023-02-23T02:15:21;93438.69;;;7.17;100.00
24610;BME280;12758;47.890;11.694;2023-02-23T02:17:55;93442.66;;;7.19;100.00
24610;BME280;12758;47.890;11.694;2023-02-23T02:20:41;93441.06;;;7.27;100.00
24610;BME280;12758;47.890;11.694;2023-02-23T02:23:30;93440.75;;;7.20;100.00
24610;BME280;12758;47.890;11.694;2023-02-23T02:26:07;93443.28;;;7.25;100.00
24610;BME280;12758;47.890;11.694;2023-02-23T02:31:40;93437.25;;;7.28;100.00
24610;BME280;12758;47.890;11.694;2023-02-23T02:37:30;93435.81;;;7.22;100.00
24610;BME280;12758;47.890;11.694;2023-02-23T02:40:06;93441.38;;;7.17;100.00
24610;BME280;12758;47.890;11.694;2023-02-23T02:42:47;93430.59;;;7.26;100.00
24610;BME280;12758;47.890;11.694;2023-02-23T02:45:20;93429.31;;;7.32;100.00
24610;BME280;12758;47.890;11.694;2023-02-23T02:47:52;93429.16;;;7.28;100.00
24610;BME280;12758;47.890;11.694;2023-02-23T02:50:21;93435.34;;;7.37;100.00
24610;BME280;12758;47.890;11.694;2023-02-23T02:52:57;93427.72;;;7.31;100.00
24610;BME280;12758;47.890;11.694;2023-02-23T02:55:27;93419.94;;;7.38;100.00
24610;BME280;12758;47.890;11.694;2023-02-23T02:57:58;93438.69;;;7.34;100.00
24610;BME280;12758;47.890;11.694;2023-02-23T03:00:28;93440.28;;;7.35;100.00
24610;BME280;12758;47.890;11.694;2023-02-23T03:03:27;93436.78;;;7.43;100.00
24610;BME280;12758;47.890;11.694;2023-02-23T03:06:11;93438.22;;;7.41;100.00
24610;BME280;12758;47.890;11.694;2023-02-23T03:09:00;93432.00;;;7.40;100.00
24610;BME280;12758;47.890;11.694;2023-02-23T03:11:49;93430.59;;;7.34;100.00
24610;BME280;12758;47.890;11.694;2023-02-23T03:14:39;93435.19;;;7.08;100.00
24610;BME280;12758;47.890;11.694;2023-02-23T03:17:33;93426.75;;;6.92;100.00
24610;BME280;12758;47.890;11.694;2023-02-23T03:20:25;93435.50;;;7.15;100.00
24610;BME280;12758;47.890;11.694;2023-02-23T03:23:15;93435.81;;;7.22;100.00
24610;BME280;12758;47.890;11.694;2023-02-23T03:26:05;93438.53;;;7.22;100.00
24610;BME280;12758;47.890;11.694;2023-02-23T03:28:54;93435.66;;;7.18;100.00
24610;BME280;12758;47.890;11.694;2023-02-23T03:31:44;93435.03;;;7.21;100.00
24610;BME280;12758;47.890;11.694;2023-02-23T03:34:32;93440.13;;;7.23;100.00
24610;BME280;12758;47.890;11.694;2023-02-23T03:37:21;93439.16;;;7.19;100.00
24610;BME280;12758;47.890;11.694;2023-02-23T03:40:10;93431.22;;;7.05;100.00
24610;BME280;12758;47.890;11.694;2023-02-23T03:42:57;93445.47;;;6.88;100.00
24610;BME280;12758;47.890;11.694;2023-02-23T03:45:45;93441.00;;;6.66;100.00
24610;BME280;12758;47.890;11.694;2023-02-23T03:48:31;93435.91;;;6.65;100.00
24610;BME280;12758;47.890;11.694;2023-02-23T03:51:18;93443.66;;;6.58;100.00
24610;BME280;12758;47.890;11.694;2023-02-23T03:54:06;93441.00;;;6.75;100.00
24610;BME280;12758;47.890;11.694;2023-02-23T03:56:51;93439.94;;;6.93;100.00
24610;BME280;12758;47.890;11.694;2023-02-23T03:59:41;93446.13;;;7.03;100.00
24610;BME280;12758;47.890;11.694;2023-02-23T04:02:26;93444.41;;;7.07;100.00
24610;BME280;12758;47.890;11.694;2023-02-23T04:05:15;93444.72;;;7.14;100.00
24610;BME280;12758;47.890;11.694;2023-02-23T04:08:00;93449.97;;;7.28;100.00
24610;BME280;12758;47.890;11.694;2023-02-23T04:10:49;93440.44;;;7.30;100.00
24610;BME280;12758;47.890;11.694;2023-02-23T04:13:33;93452.50;;;7.33;100.00
24610;BME280;12758;47.890;11.694;2023-02-23T04:16:04;93448.53;;;7.30;100.00
24610;BME280;12758;47.890;11.694;2023-02-23T04:18:32;93456.50;;;7.35;100.00
24610;BME280;12758;47.890;11.694;2023-02-23T04:20:58;93457.59;;;7.34;100.00
24610;BME280;12758;47.890;11.694;2023-02-23T04:23:25;93445.34;;;7.28;100.00
24610;BME280;12758;47.890;11.694;2023-02-23T04:25:52;93453.94;;;7.30;100.00
24610;BME280;12758;47.890;11.694;2023-02-23T04:28:19;93453.94;;;7.30;100.00
24610;BME280;12758;47.890;11.694;2023-02-23T04:30:45;93452.50;;;7.24;100.00
24610;BME280;12758;47.890;11.694;2023-02-23T04:33:12;93451.88;;;7.27;100.00
24610;BME280;12758;47.890;11.694;2023-02-23T04:35:39;93450.91;;;7.32;100.00
24610;BME280;12758;47.890;11.694;2023-02-23T04:38:05;93453.44;;;7.28;100.00
24610;BME280;12758;47.890;11.694;2023-02-23T04:40:31;93451.72;;;7.32;100.00
24610;BME280;12758;47.890;11.694;2023-02-23T04:42:57;93463.47;;;7.36;100.00
24610;BME280;12758;47.890;11.694;2023-02-23T04:45:24;93456.78;;;7.25;100.00
24610;BME280;12758;47.890;11.694;2023-02-23T04:47:50;93457.41;;;7.05;100.00
24610;BME280;12758;47.890;11.694;2023-02-23T04:50:17;93451.38;;;7.08;100.00
24610;BME280;12758;47.890;11.694;2023-02-23T04:52:43;93452.97;;;7.09;100.00
24610;BME280;12758;47.890;11.694;2023-02-23T04:55:14;93452.66;;;7.19;100.00
24610;BME280;12758;47.890;11.694;2023-02-23T04:57:41;93451.38;;;7.25;100.00
24610;BME280;12758;47.890;11.694;2023-02-23T05:00:08;93449.97;;;7.28;100.00
24610;BME280;12758;47.890;11.694;2023-02-23T05:02:34;93450.13;;;7.31;100.00
24610;BME280;12758;47.890;11.694;2023-02-23T05:05:00;93445.50;;;7.32;100.00
24610;BME280;12758;47.890;11.694;2023-02-23T05:07:27;93445.34;;;7.11;100.00
24610;BME280;12758;47.890;11.694;2023-02-23T05:09:53;93456.56;;;6.87;100.00
24610;BME280;12758;47.890;11.694;2023-02-23T05:12:19;93457.81;;;6.72;100.00
24610;BME280;12758;47.890;11.694;2023-02-23T05:14:45;93456.31;;;6.48;100.00
24610;BME280;12758;47.890;11.694;2023-02-23T05:17:11;93453.88;;;6.78;100.00
24610;BME280;12758;47.890;11.694;2023-02-23T05:19:37;93454.50;;;6.75;100.00
24610;BME280;12758;47.890;11.694;2023-02-23T05:22:03;93456.88;;;6.76;100.00
24610;BME280;12758;47.890;11.694;2023-02-23T05:24:29;93462.91;;;6.82;100.00
24610;BME280;12758;47.890;11.694;2023-02-23T05:26:55;93451.38;;;6.90;100.00
24610;BME280;12758;47.890;11.694;2023-02-23T05:29:21;93452.25;;;6.77;100.00
24610;BME280;12758;47.890;11.694;2023-02-23T05:31:48;93454.97;;;6.77;100.00
24610;BME280;12758;47.890;11.694;2023-02-23T05:34:14;93455.75;;;6.69;100.00
24610;BME280;12758;47.890;11.694;2023-02-23T05:36:41;93456.38;;;6.66;100.00
24610;BME280;12758;47.890;11.694;2023-02-23T05:39:07;93460.97;;;6.65;100.00
24610;BME280;12758;47.890;11.694;2023-02-23T05:41:33;93462.44;;;6.71;100.00
24610;BME280;12758;47.890;11.694;2023-02-23T05:43:59;93466.41;;;6.83;100.00
24610;BME280;12758;47.890;11.694;2023-02-23T05:46:26;93455.16;;;6.89;100.00
24610;BME280;12758;47.890;11.694;2023-02-23T05:48:55;93460.09;;;6.87;100.00
24610;BME280;12758;47.890;11.694;2023-02-23T05:51:21;93449.63;;;7.03;100.00
24610;BME280;12758;47.890;11.694;2023-02-23T05:53:47;93455.19;;;7.07;100.00
24610;BME280;12758;47.890;11.694;2023-02-23T05:56:14;93452.16;;;7.08;100.00
24610;BME280;12758;47.890;11.694;2023-02-23T05:58:45;93461.53;;;7.11;100.00
24610;BME280;12758;47.890;11.694;2023-02-23T06:01:11;93458.19;;;7.05;100.00
24610;BME280;12758;47.890;11.694;2023-02-23T06:03:37;93456.91;;;7.03;100.00
24610;BME280;12758;47.890;11.694;2023-02-23T06:06:04;93469.16;;;7.09;100.00
24610;BME280;12758;47.890;11.694;2023-02-23T06:08:30;93462.19;;;7.08;100.00
24610;BME280;12758;47.890;11.694;2023-02-23T06:10:56;93459.66;;;7.20;100.00
24610;BME280;12758;47.890;11.694;2023-02-23T06:13:22;93464.25;;;7.28;100.00
24610;BME280;12758;47.890;11.694;2023-02-23T06:15:48;93465.69;;;7.34;100.00
24610;BME280;12758;47.890;11.694;2023-02-23T06:18:15;93462.03;;;7.39;100.00
24610;BME280;12758;47.890;11.694;2023-02-23T06:20:42;93473.00;;;7.42;100.00
24610;BME280;12758;47.890;11.694;2023-02-23T06:23:08;93467.91;;;7.50;100.00
24610;BME280;12758;47.890;11.694;2023-02-23T06:25:34;93473.16;;;7.46;100.00
24610;BME280;12758;47.890;11.694;2023-02-23T06:28:00;93472.22;;;7.42;100.00
24610;BME280;12758;47.890;11.694;2023-02-23T06:30:26;93473.13;;;7.29;100.00
24610;BME280;12758;47.890;11.694;2023-02-23T06:32:53;93481.09;;;7.34;100.00
24610;BME280;12758;47.890;11.694;2023-02-23T06:35:19;93494.22;;;7.00;100.00
24610;BME280;12758;47.890;11.694;2023-02-23T06:37:45;93484.06;;;6.97;100.00
24610;BME280;12758;47.890;11.694;2023-02-23T06:40:11;93489.75;;;6.96;100.00
24610;BME280;12758;47.890;11.694;2023-02-23T06:42:37;93498.22;;;7.03;100.00
24610;BME280;12758;47.890;11.694;2023-02-23T06:45:04;93499.31;;;7.11;100.00
24610;BME280;12758;47.890;11.694;2023-02-23T06:47:30;93505.03;;;7.00;100.00
24610;BME280;12758;47.890;11.694;2023-02-23T06:49:57;93499.84;;;6.73;100.00
24610;BME280;12758;47.890;11.694;2023-02-23T06:52:24;93503.38;;;6.82;100.00
24610;BME280;12758;47.890;11.694;2023-02-23T06:54:50;93505.66;;;6.97;100.00
24610;BME280;12758;47.890;11.694;2023-02-23T06:57:16;93509.44;;;6.96;100.00
24610;BME280;12758;47.890;11.694;2023-02-23T06:59:43;93500.25;;;6.97;100.00
24610;BME280;12758;47.890;11.694;2023-02-23T07:02:09;93508.69;;;7.13;100.00
24610;BME280;12758;47.890;11.694;2023-02-23T07:04:35;93509.31;;;7.02;100.00
24610;BME280;12758;47.890;11.694;2023-02-23T07:07:02;93504.63;;;6.76;100.00
24610;BME280;12758;47.890;11.694;2023-02-23T07:09:29;93506.50;;;6.67;100.00
24610;BME280;12758;47.890;11.694;2023-02-23T07:11:55;93509.06;;;6.72;100.00
24610;BME280;12758;47.890;11.694;2023-02-23T07:14:21;93518.28;;;6.80;100.00
24610;BME280;12758;47.890;11.694;2023-02-23T07:16:47;93511.97;;;6.84;100.00
24610;BME280;12758;47.890;11.694;2023-02-23T07:19:13;93509.13;;;6.98;100.00
24610;BME280;12758;47.890;11.694;2023-02-23T07:21:39;93519.28;;;6.92;100.00
24610;BME280;12758;47.890;11.694;2023-02-23T07:24:06;93514.78;;;6.79;100.00
24610;BME280;12758;47.890;11.694;2023-02-23T07:26:33;93514.78;;;6.79;100.00
24610;BME280;12758;47.890;11.694;2023-02-23T07:28:59;93517.81;;;6.78;100.00
24610;BME280;12758;47.890;11.694;2023-02-23T07:31:25;93513.84;;;6.75;100.00
24610;BME280;12758;47.890;11.694;2023-02-23T07:33:52;93518.91;;;6.76;100.00
24610;BME280;12758;47.890;11.694;2023-02-23T07:36:19;93515.75;;;6.83;100.00
24610;BME280;12758;47.890;11.694;2023-02-23T07:38:45;93515.75;;;6.83;100.00
24610;BME280;12758;47.890;11.694;2023-02-23T07:41:12;93523.53;;;6.85;100.00
24610;BME280;12758;47.890;11.694;2023-02-23T07:43:38;93519.13;;;6.97;100.00
24610;BME280;12758;47.890;11.694;2023-02-23T07:46:04;93516.78;;;7.05;100.00
24610;BME280;12758;47.890;11.694;2023-02-23T07:48:30;93521.53;;;7.08;100.00
24610;BME280;12758;47.890;11.694;2023-02-23T07:50:56;93515.50;;;7.11;100.00
24610;BME280;12758;47.890;11.694;2023-02-23T07:53:22;93515.50;;;7.11;100.00
24610;BME280;12758;47.890;11.694;2023-02-23T07:55:54;93517.09;;;7.12;100.00
24610;BME280;12758;47.890;11.694;2023-02-23T07:58:21;93525.69;;;7.14;100.00
24610;BME280;12758;47.890;11.694;2023-02-23T08:00:47;93520.13;;;7.19;100.00
24610;BME280;12758;47.890;11.694;2023-02-23T08:03:13;93520.44;;;7.17;100.00
24610;BME280;12758;47.890;11.694;2023-02-23T08:05:39;93520.94;;;7.28;100.00
24610;BME280;12758;47.890;11.694;2023-02-23T08:08:05;93526.69;;;7.35;100.00
24610;BME280;12758;47.890;11.694;2023-02-23T08:10:31;93523.97;;;7.35;100.00
24610;BME280;12758;47.890;11.694;2023-02-23T08:12:57;93528.91;;;7.33;100.00
24610;BME280;12758;47.890;11.694;2023-02-23T08:15:25;93526.69;;;7.35;100.00
24610;BME280;12758;47.890;11.694;2023-02-23T08:17:51;93528.44;;;7.40;100.00
24610;BME280;12758;47.890;11.694;2023-02-23T08:20:17;93522.56;;;7.46;100.00
24610;BME280;12758;47.890;11.694;2023-02-23T08:22:43;93521.28;;;7.53;100.00
24610;BME280;12758;47.890;11.694;2023-02-23T08:25:09;93526.34;;;7.54;100.00
24610;BME280;12758;47.890;11.694;2023-02-23T08:27:36;93532.56;;;7.55;100.00
24610;BME280;12758;47.890;11.694;2023-02-23T08:30:03;93534.16;;;7.56;100.00
24610;BME280;12758;47.890;11.694;2023-02-23T08:32:32;93532.56;;;7.63;100.00
24610;BME280;12758;47.890;11.694;2023-02-23T08:34:59;93534.47;;;7.72;100.00
24610;BME280;12758;47.890;11.694;2023-02-23T08:37:27;93534.16;;;7.73;100.00
24610;BME280;12758;47.890;11.694;2023-02-23T08:39:53;93537.19;;;7.80;100.00
24610;BME280;12758;47.890;11.694;2023-02-23T08:42:19;93540.66;;;7.89;100.00
24610;BME280;12758;47.890;11.694;2023-02-23T08:44:45;93533.38;;;7.90;100.00
24610;BME280;12758;47.890;11.694;2023-02-23T08:47:13;93530.81;;;7.93;100.00
24610;BME280;12758;47.890;11.694;2023-02-23T08:49:41;93533.69;;;8.06;100.00
24610;BME280;12758;47.890;11.694;2023-02-23T08:52:07;93532.88;;;7.97;100.00
24610;BME280;12758;47.890;11.694;2023-02-23T08:54:33;93529.84;;;7.98;100.00
24610;BME280;12758;47.890;11.694;2023-02-23T08:56:59;93532.06;;;8.22;100.00
24610;BME280;12758;47.890;11.694;2023-02-23T08:59:25;93532.06;;;8.22;100.00
24610;BME280;12758;47.890;11.694;2023-02-23T09:01:51;93528.88;;;8.20;100.00
24610;BME280;12758;47.890;11.694;2023-02-23T09:04:17;93528.38;;;8.35;100.00
24610;BME280;12758;47.890;11.694;2023-02-23T09:06:45;93528.81;;;8.37;100.00
24610;BME280;12758;47.890;11.694;2023-02-23T09:09:11;93527.56;;;8.44;100.00
24610;BME280;12758;47.890;11.694;2023-02-23T09:11:37;93526.78;;;8.43;100.00
24610;BME280;12758;47.890;11.694;2023-02-23T09:14:03;93522.66;;;8.46;100.00
24610;BME280;12758;47.890;11.694;2023-02-23T09:16:29;93531.06;;;8.53;100.00
24610;BME280;12758;47.890;11.694;2023-02-23T09:18:56;93527.72;;;8.47;100.00
24610;BME280;12758;47.890;11.694;2023-02-23T09:21:24;93527.91;;;8.42;100.00
24610;BME280;12758;47.890;11.694;2023-02-23T09:23:51;93527.91;;;8.51;100.00
24610;BME280;12758;47.890;11.694;2023-02-23T09:26:20;93530.13;;;8.49;100.00
24610;BME280;12758;47.890;11.694;2023-02-23T09:28:47;93528.69;;;8.51;100.00
24610;BME280;12758;47.890;11.694;2023-02-23T09:31:15;93532.97;;;8.44;100.00
24610;BME280;12758;47.890;11.694;2023-02-23T09:33:41;93531.56;;;8.46;100.00
24610;BME280;12758;47.890;11.694;2023-02-23T09:36:08;93535.22;;;8.42;100.00
24610;BME280;12758;47.890;11.694;2023-02-23T09:38:37;93535.81;;;8.56;100.00
24610;BME280;12758;47.890;11.694;2023-02-23T09:41:04;93544.13;;;8.51;100.00
24610;BME280;12758;47.890;11.694;2023-02-23T09:43:35;93533.31;;;8.51;100.00
24610;BME280;12758;47.890;11.694;2023-02-23T09:46:10;93543.13;;;8.64;100.00
24610;BME280;12758;47.890;11.694;2023-02-23T09:48:38;93544.84;;;8.69;100.00
24610;BME280;12758;47.890;11.694;2023-02-23T09:51:05;93540.09;;;8.66;100.00
24610;BME280;12758;47.890;11.694;2023-02-23T09:53:36;93541.06;;;8.61;100.00
24610;BME280;12758;47.890;11.694;2023-02-23T09:56:06;93546.94;;;8.63;100.00
24610;BME280;12758;47.890;11.694;2023-02-23T09:58:35;93542.25;;;8.81;100.00
24610;BME280;12758;47.890;11.694;2023-02-23T10:01:26;93541.41;;;8.89;100.00
24610;BME280;12758;47.890;11.694;2023-02-23T10:04:02;93547.66;;;8.90;100.00
24610;BME280;12758;47.890;11.694;2023-02-23T10:06:29;93543.72;;;9.08;100.00
24610;BME280;12758;47.890;11.694;2023-02-23T10:09:02;93538.28;;;8.78;100.00
24610;BME280;12758;47.890;11.694;2023-02-23T10:11:34;93537.00;;;8.84;100.00
24610;BME280;12758;47.890;11.694;2023-02-23T10:14:07;93541.91;;;8.91;100.00
24610;BME280;12758;47.890;11.694;2023-02-23T10:16:42;93541.38;;;9.27;100.00
24610;BME280;12758;47.890;11.694;2023-02-23T10:19:13;93537.78;;;9.15;100.00
24610;BME280;12758;47.890;11.694;2023-02-23T10:21:45;93544.41;;;9.35;100.00
24610;BME280;12758;47.890;11.694;2023-02-23T10:24:16;93536.84;;;9.40;100.00
24610;BME280;12758;47.890;11.694;2023-02-23T10:26:48;93531.06;;;9.50;100.00
24610;BME280;12758;47.890;11.694;2023-02-23T10:29:20;93535.88;;;9.45;100.00
24610;BME280;12758;47.890;11.694;2023-02-23T10:31:48;93535.00;;;9.32;100.00
24610;BME280;12758;47.890;11.694;2023-02-23T10:34:16;93539.13;;;9.59;100.00
24610;BME280;12758;47.890;11.694;2023-02-23T10:36:43;93532.91;;;9.38;100.00
24610;BME280;12758;47.890;11.694;2023-02-23T10:39:10;93524.78;;;9.59;100.00
24610;BME280;12758;47.890;11.694;2023-02-23T10:41:37;93521.69;;;9.48;100.00
24610;BME280;12758;47.890;11.694;2023-02-23T10:44:05;93524.00;;;9.58;100.00
24610;BME280;12758;47.890;11.694;2023-02-23T10:46:37;93517.88;;;9.70;100.00
24610;BME280;12758;47.890;11.694;2023-02-23T10:49:05;93523.47;;;9.44;100.00
24610;BME280;12758;47.890;11.694;2023-02-23T10:51:33;93518.75;;;9.53;100.00
24610;BME280;12758;47.890;11.694;2023-02-23T10:56:53;93511.81;;;9.85;100.00
24610;BME280;12758;47.890;11.694;2023-02-23T10:59:20;93513.97;;;9.79;100.00
24610;BME280;12758;47.890;11.694;2023-02-23T11:01:46;93508.25;;;9.72;100.00
24610;BME280;12758;47.890;11.694;2023-02-23T11:04:17;93512.16;;;9.84;100.00
24610;BME280;12758;47.890;11.694;2023-02-23T11:06:46;93505.00;;;10.00;100.00
24610;BME280;12758;47.890;11.694;2023-02-23T11:09:22;93498.81;;;9.99;100.00
24610;BME280;12758;47.890;11.694;2023-02-23T11:11:55;93508.84;;;9.99;100.00
24610;BME280;12758;47.890;11.694;2023-02-23T11:14:23;93500.91;;;9.94;100.00
24610;BME280;12758;47.890;11.694;2023-02-23T11:16:49;93502.50;;;9.95;100.00
24610;BME280;12758;47.890;11.694;2023-02-23T11:19:20;93501.47;;;9.87;100.00
24610;BME280;12758;47.890;11.694;2023-02-23T11:21:49;93507.41;;;9.80;100.00
24610;BME280;12758;47.890;11.694;2023-02-23T11:24:17;93499.22;;;9.89;100.00
24610;BME280;12758;47.890;11.694;2023-02-23T11:26:47;93493.97;;;10.05;100.00
24610;BME280;12758;47.890;11.694;2023-02-23T11:29:19;93500.91;;;9.94;100.00
24610;BME280;12758;47.890;11.694;2023-02-23T11:31:49;93488.75;;;10.00;100.00
24610;BME280;12758;47.890;11.694;2023-02-23T11:34:21;93491.25;;;10.05;100.00
24610;BME280;12758;47.890;11.694;2023-02-23T11:36:58;93502.47;;;10.16;100.00
24610;BME280;12758;47.890;11.694;2023-02-23T11:39:24;93489.94;;;10.11;100.00
24610;BME280;12758;47.890;11.694;2023-02-23T11:42:11;93489.69;;;10.16;100.00
24610;BME280;12758;47.890;11.694;2023-02-23T11:44:39;93484.59;;;10.02;100.00
24610;BME280;12758;47.890;11.694;2023-02-23T11:47:12;93486.50;;;10.02;100.00
24610;BME280;12758;47.890;11.694;2023-02-23T11:49:39;93488.50;;;9.93;100.00
24610;BME280;12758;47.890;11.694;2023-02-23T11:52:11;93488.09;;;10.03;100.00
24610;BME280;12758;47.890;11.694;2023-02-23T11:54:40;93487.88;;;10.08;100.00
24610;BME280;12758;47.890;11.694;2023-02-23T11:57:19;93479.09;;;10.11;100.00
24610;BME280;12758;47.890;11.694;2023-02-23T11:59:46;93485.19;;;10.08;100.00
24610;BME280;12758;47.890;11.694;2023-02-23T12:02:20;93479.88;;;10.12;100.00
24610;BME280;12758;47.890;11.694;2023-02-23T12:04:47;93478.16;;;10.07;100.00
24610;BME280;12758;47.890;11.694;2023-02-23T12:07:30;93480.00;;;10.15;100.00
24610;BME280;12758;47.890;11.694;2023-02-23T12:10:04;93473.66;;;10.11;100.00
24610;BME280;12758;47.890;11.694;2023-02-23T12:12:37;93474.31;;;10.08;100.00
24610;BME280;12758;47.890;11.694;2023-02-23T12:15:09;93475.00;;;10.05;100.00
24610;BME280;12758;47.890;11.694;2023-02-23T12:17:42;93470.69;;;10.04;100.00
24610;BME280;12758;47.890;11.694;2023-02-23T12:20:13;93472.78;;;9.86;100.00
24610;BME280;12758;47.890;11.694;2023-02-23T12:22:42;93470.38;;;9.85;100.00
24610;BME280;12758;47.890;11.694;2023-02-23T12:25:12;93463.75;;;9.94;100.00
24610;BME280;12758;47.890;11.694;2023-02-23T12:27:44;93463.91;;;9.77;100.00
24610;BME280;12758;47.890;11.694;2023-02-23T12:30:13;93461.47;;;9.84;100.00
24610;BME280;12758;47.890;11.694;2023-02-23T12:32:45;93466.28;;;9.78;100.00
24610;BME280;12758;47.890;11.694;2023-02-23T12:35:15;93459.53;;;9.85;100.00
24610;BME280;12758;47.890;11.694;2023-02-23T12:37:45;93455.56;;;9.82;100.00
24610;BME280;12758;47.890;11.694;2023-02-23T12:40:14;93459.53;;;9.85;100.00
24610;BME280;12758;47.890;11.694;2023-02-23T12:42:44;93467.34;;;9.86;100.00
24610;BME280;12758;47.890;11.694;2023-02-23T12:45:16;93460.63;;;9.71;100.00
24610;BME280;12758;47.890;11.694;2023-02-23T12:47:46;93454.53;;;9.74;100.00
24610;BME280;12758;47.890;11.694;2023-02-23T12:50:17;93452.34;;;9.68;100.00
24610;BME280;12758;47.890;11.694;2023-02-23T12:52:50;93458.13;;;9.66;100.00
24610;BME280;12758;47.890;11.694;2023-02-23T12:55:20;93445.69;;;9.65;100.00
24610;BME280;12758;47.890;11.694;2023-02-23T12:57:52;93456.31;;;9.70;100.00
24610;BME280;12758;47.890;11.694;2023-02-23T13:00:34;93456.44;;;9.74;100.00
24610;BME280;12758;47.890;11.694;2023-02-23T13:06:07;93457.84;;;9.80;100.00
24610;BME280;12758;47.890;11.694;2023-02-23T13:08:48;93453.44;;;9.88;100.00
24610;BME280;12758;47.890;11.694;2023-02-23T13:11:21;93455.56;;;9.82;100.00
24610;BME280;12758;47.890;11.694;2023-02-23T13:13:54;93449.81;;;9.84;100.00
24610;BME280;12758;47.890;11.694;2023-02-23T13:16:24;93450.31;;;9.86;100.00
24610;BME280;12758;47.890;11.694;2023-02-23T13:19:00;93446.22;;;9.79;100.00